createdAt,value
2023-02-06T00:01:28.976Z,19.77
2023-02-06T00:03:57.182Z,33.10
2023-02-06T00:06:26.582Z,18.60
2023-02-06T00:08:56.191Z,19.93
2023-02-06T00:11:24.590Z,21.97
2023-02-06T00:13:53.154Z,21.37
2023-02-06T00:16:23.954Z,24.47
2023-02-06T00:18:52.998Z,21.73
2023-02-06T00:21:24.647Z,22.03
2023-02-06T00:23:54.048Z,20.53
2023-02-06T00:26:24.368Z,18.80
2023-02-06T00:28:52.953Z,28.13
2023-02-06T00:31:21.358Z,22.67
2023-02-06T00:33:49.759Z,24.77
2023-02-06T00:36:18.195Z,22.07
2023-02-06T00:38:46.513Z,21.10
2023-02-06T00:41:15.474Z,21.20
2023-02-06T00:43:46.315Z,20.33
2023-02-06T00:46:14.626Z,22.33
2023-02-06T00:48:44.741Z,21.37
2023-02-06T00:51:12.964Z,18.23
2023-02-06T00:53:41.164Z,25.40
2023-02-06T00:56:09.465Z,22.37
2023-02-06T00:58:38.507Z,25.53
2023-02-06T01:01:08.241Z,22.73
2023-02-06T01:03:36.434Z,21.70
2023-02-06T01:06:04.802Z,19.30
2023-02-06T01:08:33.071Z,20.93
2023-02-06T01:11:01.425Z,23.83
2023-02-06T01:13:29.799Z,23.27
2023-02-06T01:15:58.102Z,21.23
2023-02-06T01:18:27.875Z,21.63
2023-02-06T01:20:56.120Z,28.40
2023-02-06T01:23:26.069Z,18.80
2023-02-06T01:25:54.278Z,23.13
2023-02-06T01:28:22.501Z,24.20
2023-02-06T01:30:51.377Z,21.53
2023-02-06T01:33:19.640Z,22.93
2023-02-06T01:35:56.329Z,21.53
2023-02-06T01:38:24.541Z,25.30
2023-02-06T01:40:57.791Z,20.90
2023-02-06T01:43:28.788Z,22.07
2023-02-06T01:45:57.638Z,23.93
2023-02-06T01:48:32.855Z,19.07
2023-02-06T01:51:04.816Z,22.90
2023-02-06T01:53:33.855Z,28.70
2023-02-06T01:56:05.711Z,24.40
2023-02-06T01:58:38.883Z,27.83
2023-02-06T02:01:08.501Z,20.87
2023-02-06T02:03:39.821Z,24.70
2023-02-06T02:06:14.117Z,23.83
2023-02-06T02:08:44.191Z,20.53
2023-02-06T02:11:16.677Z,27.17
2023-02-06T02:13:45.288Z,21.60
2023-02-06T02:16:19.321Z,20.47
2023-02-06T02:19:00.782Z,24.63
2023-02-06T02:22:00.736Z,18.13
2023-02-06T02:24:50.852Z,27.07
2023-02-06T02:27:44.422Z,18.47
2023-02-06T02:30:42.183Z,19.77
2023-02-06T02:33:36.713Z,18.67
2023-02-06T02:36:15.749Z,20.07
2023-02-06T02:38:55.790Z,14.53
2023-02-06T02:41:30.937Z,19.40
2023-02-06T02:44:06.148Z,19.60
2023-02-06T02:46:38.484Z,19.60
2023-02-06T02:49:11.503Z,19.83
2023-02-06T02:51:42.542Z,22.43
2023-02-06T02:54:11.501Z,17.80
2023-02-06T02:56:39.801Z,19.83
2023-02-06T02:59:12.165Z,25.80
2023-02-06T03:01:43.842Z,19.87
2023-02-06T03:04:15.931Z,19.03
2023-02-06T03:06:59.398Z,22.97
2023-02-06T03:09:40.803Z,20.67
2023-02-06T03:12:18.263Z,21.40
2023-02-06T03:14:51.772Z,24.93
2023-02-06T03:17:28.275Z,18.63
2023-02-06T03:19:59.424Z,21.53
2023-02-06T03:22:30.505Z,20.73
2023-02-06T03:25:00.247Z,14.83
2023-02-06T03:27:29.982Z,17.87
2023-02-06T03:30:00.254Z,18.80
2023-02-06T03:32:32.404Z,16.70
2023-02-06T03:35:04.419Z,17.63
2023-02-06T03:37:36.481Z,20.97
2023-02-06T03:40:07.060Z,21.67
2023-02-06T03:42:38.421Z,16.27
2023-02-06T03:45:11.119Z,13.60
2023-02-06T03:47:40.709Z,16.90
2023-02-06T03:50:11.956Z,19.13
2023-02-06T03:52:45.861Z,16.37
2023-02-06T03:55:18.759Z,15.40
2023-02-06T03:57:51.027Z,18.90
2023-02-06T04:00:19.475Z,14.87
2023-02-06T04:02:49.241Z,23.10
2023-02-06T04:05:19.944Z,21.43
2023-02-06T04:07:49.557Z,23.03
2023-02-06T04:10:17.857Z,15.97
2023-02-06T04:12:46.070Z,16.07
2023-02-06T04:15:14.345Z,18.77
2023-02-06T04:17:57.424Z,18.53
2023-02-06T04:20:26.051Z,22.90
2023-02-06T04:22:55.644Z,13.63
2023-02-06T04:25:23.975Z,26.00
2023-02-06T04:27:52.501Z,14.20
2023-02-06T04:30:20.855Z,14.47
2023-02-06T04:32:49.056Z,14.20
2023-02-06T04:35:17.451Z,20.67
2023-02-06T04:37:45.692Z,16.20
2023-02-06T04:40:15.447Z,16.17
2023-02-06T04:42:43.665Z,15.63
2023-02-06T04:45:11.880Z,16.90
2023-02-06T04:47:40.459Z,18.40
2023-02-06T04:50:10.503Z,14.33
2023-02-06T04:52:38.893Z,15.67
2023-02-06T04:55:07.758Z,19.57
2023-02-06T04:57:37.516Z,29.57
2023-02-06T05:00:06.698Z,13.03
2023-02-06T05:02:37.523Z,20.23
2023-02-06T05:05:06.941Z,19.03
2023-02-06T05:07:35.387Z,19.33
2023-02-06T05:10:03.852Z,18.63
2023-02-06T05:12:32.057Z,14.47
2023-02-06T05:15:01.738Z,15.63
2023-02-06T05:17:30.509Z,13.90
2023-02-06T05:19:58.816Z,15.53
2023-02-06T05:22:27.608Z,20.23
2023-02-06T05:24:55.860Z,14.47
2023-02-06T05:27:24.670Z,13.87
2023-02-06T05:29:52.920Z,16.23
2023-02-06T05:32:22.631Z,17.00
2023-02-06T05:34:50.838Z,16.77
2023-02-06T05:37:19.138Z,15.87
2023-02-06T05:39:47.411Z,15.00
2023-02-06T05:42:15.614Z,13.97
2023-02-06T05:44:43.887Z,21.50
2023-02-06T05:47:12.129Z,16.23
2023-02-06T05:49:43.988Z,25.07
2023-02-06T05:52:12.747Z,14.63
2023-02-06T05:54:41.145Z,15.57
2023-02-06T05:57:09.387Z,22.40
2023-02-06T05:59:38.016Z,16.33
2023-02-06T06:02:06.631Z,20.17
2023-02-06T06:04:35.002Z,13.47
2023-02-06T06:07:04.952Z,17.57
2023-02-06T06:09:33.234Z,20.73
2023-02-06T06:12:01.455Z,19.83
2023-02-06T06:14:29.770Z,18.17
2023-02-06T06:16:58.040Z,16.67
2023-02-06T06:19:26.227Z,17.30
2023-02-06T06:21:56.044Z,17.23
2023-02-06T06:24:27.528Z,24.73
2023-02-06T06:26:55.919Z,17.90
2023-02-06T06:29:24.092Z,22.40
2023-02-06T06:31:52.405Z,19.00
2023-02-06T06:34:20.652Z,14.80
2023-02-06T06:36:48.840Z,14.17
2023-02-06T06:39:17.128Z,16.97
2023-02-06T06:41:46.838Z,19.13
2023-02-06T06:44:15.066Z,14.47
2023-02-06T06:46:43.275Z,16.30
2023-02-06T06:49:11.508Z,15.40
2023-02-06T06:51:39.808Z,21.13
2023-02-06T06:54:08.064Z,22.67
2023-02-06T06:56:36.262Z,17.67
2023-02-06T06:59:05.832Z,18.37
2023-02-06T07:01:34.185Z,14.87
2023-02-06T07:04:02.392Z,15.40
2023-02-06T07:06:30.618Z,17.60
2023-02-06T07:08:58.821Z,19.87
2023-02-06T07:11:27.112Z,27.47
2023-02-06T07:13:55.427Z,14.73
2023-02-06T07:16:25.221Z,20.70
2023-02-06T07:18:53.478Z,18.30
2023-02-06T07:21:21.709Z,15.10
2023-02-06T07:23:49.944Z,17.37
2023-02-06T07:26:18.179Z,19.07
2023-02-06T07:28:48.281Z,18.43
2023-02-06T07:31:18.957Z,18.63
2023-02-06T07:33:48.845Z,21.83
2023-02-06T07:36:20.523Z,23.67
2023-02-06T07:38:48.971Z,25.13
2023-02-06T07:41:18.015Z,21.67
2023-02-06T07:43:46.261Z,25.50
2023-02-06T07:46:14.568Z,21.07
2023-02-06T07:48:42.803Z,20.07
2023-02-06T07:51:12.460Z,20.93
2023-02-06T07:53:40.943Z,19.57
2023-02-06T07:56:14.363Z,25.00
2023-02-06T07:58:42.799Z,24.73
2023-02-06T08:01:11.187Z,22.63
2023-02-06T08:03:39.870Z,18.43
2023-02-06T08:06:14.704Z,20.50
2023-02-06T08:08:43.624Z,22.43
2023-02-06T08:11:13.814Z,19.13
2023-02-06T08:13:42.896Z,20.50
2023-02-06T08:16:13.667Z,17.33
2023-02-06T08:18:42.638Z,17.57
2023-02-06T08:21:14.776Z,22.23
2023-02-06T08:23:44.123Z,18.13
2023-02-06T08:26:15.665Z,22.60
2023-02-06T08:28:44.697Z,19.20
2023-02-06T08:31:14.743Z,21.40
2023-02-06T08:33:43.448Z,18.23
2023-02-06T08:36:14.182Z,22.60
2023-02-06T08:38:42.968Z,27.30
2023-02-06T08:41:18.914Z,19.40
2023-02-06T08:43:47.727Z,21.53
2023-02-06T08:46:17.464Z,21.20
2023-02-06T08:48:46.273Z,21.40
2023-02-06T08:51:16.516Z,25.87
2023-02-06T08:53:44.851Z,22.03
2023-02-06T08:56:13.866Z,22.37
2023-02-06T08:58:42.214Z,20.60
2023-02-06T09:01:13.785Z,22.63
2023-02-06T09:03:42.819Z,22.17
2023-02-06T09:06:11.777Z,29.93
2023-02-06T09:08:42.571Z,26.07
2023-02-06T09:11:11.906Z,23.53
2023-02-06T09:13:40.513Z,23.47
2023-02-06T09:16:09.382Z,18.53
2023-02-06T09:18:39.141Z,24.43
2023-02-06T09:21:10.199Z,21.40
2023-02-06T09:23:39.647Z,16.10
2023-02-06T09:26:09.271Z,23.43
2023-02-06T09:28:38.141Z,26.73
2023-02-06T09:31:08.104Z,21.43
2023-02-06T09:33:36.584Z,26.57
2023-02-06T09:36:06.984Z,29.83
2023-02-06T09:38:36.015Z,28.70
2023-02-06T09:41:07.851Z,28.37
2023-02-06T09:43:37.597Z,20.63
2023-02-06T09:46:08.968Z,26.90
2023-02-06T09:48:40.712Z,33.17
2023-02-06T09:51:16.497Z,38.13
2023-02-06T09:53:56.950Z,23.70
2023-02-06T09:56:33.816Z,26.97
2023-02-06T09:59:13.730Z,28.80
2023-02-06T10:01:47.099Z,17.37
2023-02-06T10:04:33.618Z,36.87
2023-02-06T10:07:17.520Z,27.93
2023-02-06T10:09:50.717Z,22.17
2023-02-06T10:12:24.798Z,26.10
2023-02-06T10:14:59.427Z,26.43
2023-02-06T10:17:31.511Z,23.50
2023-02-06T10:20:06.289Z,28.03
2023-02-06T10:22:40.100Z,16.87
2023-02-06T10:25:23.391Z,30.20
2023-02-06T10:28:02.761Z,23.47
2023-02-06T10:30:51.545Z,33.67
2023-02-06T10:33:26.135Z,23.33
2023-02-06T10:36:03.659Z,23.37
2023-02-06T10:38:52.765Z,23.87
2023-02-06T10:41:30.841Z,24.27
2023-02-06T10:44:03.131Z,21.13
2023-02-06T10:46:48.258Z,25.80
2023-02-06T10:49:23.039Z,27.27
2023-02-06T10:51:54.507Z,20.60
2023-02-06T10:54:26.386Z,21.63
2023-02-06T10:56:57.716Z,20.17
2023-02-06T10:59:30.108Z,36.47
2023-02-06T11:02:13.786Z,20.53
2023-02-06T11:04:45.711Z,22.00
2023-02-06T11:07:17.566Z,27.80
2023-02-06T11:09:46.007Z,28.10
2023-02-06T11:12:30.086Z,30.03
2023-02-06T11:15:01.666Z,25.03
2023-02-06T11:17:32.216Z,28.27
2023-02-06T11:20:14.752Z,24.43
2023-02-06T11:22:52.281Z,28.20
2023-02-06T11:25:26.333Z,27.00
2023-02-06T11:27:55.593Z,25.17
2023-02-06T11:30:33.564Z,22.87
2023-02-06T11:33:06.484Z,21.60
2023-02-06T11:35:39.838Z,20.33
2023-02-06T11:38:18.902Z,26.93
2023-02-06T11:40:56.480Z,25.83
2023-02-06T11:43:26.575Z,24.60
2023-02-06T11:46:10.021Z,30.30
2023-02-06T11:48:44.030Z,23.77
2023-02-06T11:51:13.908Z,19.23
2023-02-06T11:53:57.088Z,19.93
2023-02-06T11:56:25.715Z,24.20
2023-02-06T11:59:07.104Z,26.03
2023-02-06T12:01:43.545Z,17.97
2023-02-06T12:04:25.093Z,15.70
2023-02-06T12:07:02.026Z,27.77
2023-02-06T12:09:30.487Z,21.77
2023-02-06T12:12:02.665Z,29.80
2023-02-06T12:14:37.211Z,22.20
2023-02-06T12:17:10.839Z,68.03
2023-02-06T12:19:49.752Z,28.70
2023-02-06T12:22:22.329Z,33.00
2023-02-06T12:24:53.127Z,28.20
2023-02-06T12:27:26.735Z,26.33
2023-02-06T12:30:01.767Z,22.13
2023-02-06T12:32:33.905Z,26.97
2023-02-06T12:35:15.830Z,29.73
2023-02-06T12:37:52.821Z,20.30
2023-02-06T12:40:30.320Z,19.07
2023-02-06T12:43:02.753Z,22.80
2023-02-06T12:45:41.150Z,24.93
2023-02-06T12:48:16.517Z,21.97
2023-02-06T12:50:50.193Z,32.37
2023-02-06T12:53:21.286Z,22.07
2023-02-06T12:55:56.322Z,26.27
2023-02-06T12:58:28.925Z,30.73
2023-02-06T13:01:30.633Z,21.40
2023-02-06T13:04:02.562Z,25.03
2023-02-06T13:06:40.752Z,17.10
2023-02-06T13:09:10.042Z,19.27
2023-02-06T13:11:42.607Z,16.10
2023-02-06T13:14:19.293Z,15.50
2023-02-06T13:16:53.817Z,19.43
2023-02-06T13:19:26.852Z,26.20
2023-02-06T13:22:24.163Z,28.60
2023-02-06T13:24:52.911Z,20.30
2023-02-06T13:27:25.699Z,19.07
2023-02-06T13:29:54.857Z,22.77
2023-02-06T13:32:45.210Z,19.17
2023-02-06T13:35:23.030Z,23.37
2023-02-06T13:38:11.885Z,20.63
2023-02-06T13:40:40.466Z,23.57
2023-02-06T13:43:17.240Z,18.33
2023-02-06T13:45:50.546Z,23.30
2023-02-06T13:48:54.612Z,32.13
2023-02-06T13:51:41.221Z,28.30
2023-02-06T13:54:43.875Z,24.30
2023-02-06T13:57:26.916Z,19.00
2023-02-06T14:00:00.481Z,29.97
2023-02-06T14:02:36.478Z,21.63
2023-02-06T14:08:25.665Z,13.30
2023-02-06T14:11:20.518Z,19.47
2023-02-06T14:14:19.105Z,18.80
2023-02-06T14:16:52.673Z,14.77
2023-02-06T14:19:30.428Z,17.87
2023-02-06T14:22:10.106Z,19.00
2023-02-06T14:25:04.131Z,12.30
2023-02-06T14:27:44.591Z,14.57
2023-02-06T14:30:24.963Z,19.23
2023-02-06T14:33:05.819Z,15.00
2023-02-06T14:35:47.767Z,17.30
2023-02-06T14:38:47.739Z,13.67
2023-02-06T14:41:16.921Z,12.33
2023-02-06T14:43:48.562Z,16.07
2023-02-06T14:46:19.202Z,10.73
2023-02-06T14:48:51.862Z,15.67
2023-02-06T14:51:24.504Z,11.20
2023-02-06T14:53:55.733Z,13.77
2023-02-06T14:56:29.894Z,11.53
2023-02-06T14:59:09.755Z,9.83
2023-02-06T15:01:38.895Z,17.10
2023-02-06T15:04:12.927Z,12.13
2023-02-06T15:06:44.459Z,16.00
2023-02-06T15:09:25.279Z,15.83
2023-02-06T15:11:56.456Z,15.53
2023-02-06T15:14:28.246Z,15.30
2023-02-06T15:16:59.796Z,11.33
2023-02-06T15:19:30.627Z,21.17
2023-02-06T15:22:01.780Z,12.70
2023-02-06T15:24:50.712Z,17.87
2023-02-06T15:27:30.678Z,13.83
2023-02-06T15:30:01.269Z,11.73
2023-02-06T15:32:33.370Z,13.17
2023-02-06T15:35:02.775Z,15.20
2023-02-06T15:37:32.808Z,13.07
2023-02-06T15:40:06.912Z,17.87
2023-02-06T15:42:35.912Z,15.00
2023-02-06T15:45:06.708Z,17.40
2023-02-06T15:47:35.333Z,17.83
2023-02-06T15:50:10.952Z,29.43
2023-02-06T15:52:42.993Z,18.43
2023-02-06T15:55:25.561Z,17.47
2023-02-06T15:57:55.833Z,12.57
2023-02-06T16:00:28.616Z,19.07
2023-02-06T16:03:02.797Z,21.67
2023-02-06T16:05:34.040Z,9.93
2023-02-06T16:08:03.602Z,15.37
2023-02-06T16:10:35.470Z,17.93
2023-02-06T16:13:10.326Z,17.87
2023-02-06T16:15:41.875Z,14.87
2023-02-06T16:18:26.906Z,12.80
2023-02-06T16:21:20.004Z,17.90
2023-02-06T16:23:52.061Z,13.53
2023-02-06T16:26:23.638Z,15.20
2023-02-06T16:28:57.864Z,12.13
2023-02-06T16:31:35.131Z,16.53
2023-02-06T16:34:04.131Z,28.40
2023-02-06T16:36:33.950Z,34.43
2023-02-06T16:39:04.535Z,29.20
2023-02-06T16:41:34.870Z,23.97
2023-02-06T16:44:04.281Z,33.03
2023-02-06T16:46:34.132Z,25.10
2023-02-06T16:49:02.625Z,41.87
2023-02-06T16:51:33.122Z,54.27
2023-02-06T16:54:01.495Z,132.57
2023-02-06T16:56:29.907Z,52.17
2023-02-06T16:58:58.185Z,69.70
2023-02-06T17:01:29.714Z,67.30
2023-02-06T17:03:59.594Z,58.07
2023-02-06T17:06:30.155Z,49.60
2023-02-06T17:09:03.374Z,29.33
2023-02-06T17:11:32.268Z,24.07
2023-02-06T17:14:00.825Z,30.03
2023-02-06T17:16:30.066Z,27.03
2023-02-06T17:18:59.727Z,22.97
2023-02-06T17:21:32.639Z,21.10
2023-02-06T17:24:01.247Z,22.97
2023-02-06T17:26:29.615Z,17.63
2023-02-06T17:28:57.959Z,22.80
2023-02-06T17:31:26.383Z,26.40
2023-02-06T17:33:54.808Z,25.60
2023-02-06T17:36:29.542Z,28.77
2023-02-06T17:38:58.923Z,29.93
2023-02-06T17:41:27.229Z,22.03
2023-02-06T17:43:55.628Z,24.60
2023-02-06T17:46:24.357Z,26.17
2023-02-06T17:48:52.633Z,25.10
2023-02-06T17:51:20.994Z,23.57
2023-02-06T17:53:51.863Z,22.07
2023-02-06T17:56:20.986Z,28.73
2023-02-06T17:58:49.412Z,27.73
2023-02-06T18:01:20.657Z,25.57
2023-02-06T18:03:48.961Z,18.73
2023-02-06T18:06:18.378Z,23.90
2023-02-06T18:08:47.011Z,18.53
2023-02-06T18:11:19.199Z,19.30
2023-02-06T18:13:48.619Z,22.97
2023-02-06T18:16:19.150Z,21.00
2023-02-06T18:18:48.327Z,19.63
2023-02-06T18:21:18.915Z,20.67
2023-02-06T18:23:47.775Z,20.63
2023-02-06T18:26:18.387Z,16.30
2023-02-06T18:28:46.814Z,26.70
2023-02-06T18:31:24.567Z,27.13
2023-02-06T18:33:53.205Z,14.03
2023-02-06T18:36:22.399Z,20.27
2023-02-06T18:38:50.691Z,19.90
2023-02-06T18:41:37.855Z,17.90
2023-02-06T18:44:07.884Z,17.60
2023-02-06T18:46:38.011Z,18.80
2023-02-06T18:49:06.685Z,20.53
2023-02-06T18:51:34.968Z,22.07
2023-02-06T18:54:03.261Z,19.87
2023-02-06T18:56:33.802Z,17.17
2023-02-06T18:59:03.916Z,17.00
2023-02-06T19:01:33.191Z,18.90
2023-02-06T19:04:01.514Z,18.83
2023-02-06T19:06:35.369Z,17.33
2023-02-06T19:09:07.089Z,16.63
2023-02-06T19:11:37.717Z,15.53
2023-02-06T19:14:07.812Z,22.10
2023-02-06T19:16:38.595Z,18.23
2023-02-06T19:19:08.660Z,15.23
2023-02-06T19:21:36.952Z,19.23
2023-02-06T19:24:06.220Z,16.73
2023-02-06T19:26:34.892Z,16.63
2023-02-06T19:29:05.050Z,14.70
2023-02-06T19:31:34.962Z,17.40
2023-02-06T19:34:03.652Z,22.77
2023-02-06T19:36:31.913Z,22.10
2023-02-06T19:39:02.442Z,17.23
2023-02-06T19:41:32.970Z,21.37
2023-02-06T19:44:05.848Z,19.43
2023-02-06T19:46:35.186Z,23.13
2023-02-06T19:49:06.046Z,27.53
2023-02-06T19:51:39.885Z,26.23
2023-02-06T19:54:08.652Z,21.60
2023-02-06T19:56:39.619Z,27.00
2023-02-06T19:59:17.959Z,23.37
2023-02-06T20:01:46.710Z,26.30
2023-02-06T20:04:15.567Z,24.00
2023-02-06T20:06:44.898Z,27.10
2023-02-06T20:09:14.767Z,26.40
2023-02-06T20:11:43.769Z,27.67
2023-02-06T20:14:13.914Z,23.67
2023-02-06T20:16:43.787Z,27.87
2023-02-06T20:19:14.212Z,40.07
2023-02-06T20:21:45.191Z,44.13
2023-02-06T20:24:18.447Z,39.90
2023-02-06T20:26:47.030Z,39.37
2023-02-06T20:29:24.291Z,42.10
2023-02-06T20:31:53.795Z,41.10
2023-02-06T20:34:23.102Z,35.93
2023-02-06T20:36:52.495Z,37.00
2023-02-06T20:39:21.531Z,33.97
2023-02-06T20:41:50.917Z,30.43
2023-02-06T20:44:21.809Z,39.13
2023-02-06T20:46:50.541Z,30.73
2023-02-06T20:49:20.579Z,28.80
2023-02-06T20:51:50.150Z,33.10
2023-02-06T20:54:19.475Z,31.47
2023-02-06T20:56:48.196Z,29.50
2023-02-06T20:59:18.364Z,32.90
2023-02-06T21:01:48.332Z,37.13
2023-02-06T21:04:17.952Z,40.83
2023-02-06T21:06:47.982Z,38.60
2023-02-06T21:09:19.778Z,46.17
2023-02-06T21:11:50.060Z,43.67
2023-02-06T21:14:19.503Z,40.20
2023-02-06T21:16:49.398Z,38.27
2023-02-06T21:19:20.201Z,37.73
2023-02-06T21:21:48.809Z,40.13
2023-02-06T21:24:17.970Z,38.57
2023-02-06T21:26:46.317Z,31.47
2023-02-06T21:29:16.241Z,37.57
2023-02-06T21:31:46.152Z,41.23
2023-02-06T21:34:18.178Z,37.50
2023-02-06T21:36:47.387Z,40.13
2023-02-06T21:39:18.669Z,42.00
2023-02-06T21:41:47.540Z,45.27
2023-02-06T21:44:15.780Z,37.20
2023-02-06T21:46:44.344Z,37.33
2023-02-06T21:49:12.633Z,38.23
2023-02-06T21:51:42.757Z,33.90
2023-02-06T21:54:11.595Z,32.43
2023-02-06T21:56:40.423Z,47.13
2023-02-06T21:59:09.229Z,34.20
2023-02-06T22:01:40.569Z,29.77
2023-02-06T22:04:10.144Z,33.63
2023-02-06T22:06:39.477Z,50.53
2023-02-06T22:09:12.671Z,41.73
2023-02-06T22:11:41.655Z,42.53
2023-02-06T22:14:12.790Z,52.30
2023-02-06T22:16:41.423Z,41.90
2023-02-06T22:19:10.862Z,50.43
2023-02-06T22:21:40.103Z,43.63
2023-02-06T22:24:11.463Z,42.70
2023-02-06T22:26:41.501Z,39.47
2023-02-06T22:29:12.973Z,49.50
2023-02-06T22:31:43.431Z,41.47
2023-02-06T22:34:16.194Z,42.87
2023-02-06T22:36:45.702Z,35.67
2023-02-06T22:39:16.171Z,40.83
2023-02-06T22:41:46.353Z,38.00
2023-02-06T22:44:16.507Z,44.17
2023-02-06T22:46:46.646Z,37.10
2023-02-06T22:49:15.296Z,37.60
2023-02-06T22:51:43.953Z,39.87
2023-02-06T22:54:12.715Z,41.53
2023-02-06T22:56:42.885Z,39.57
2023-02-06T22:59:13.224Z,36.80
2023-02-06T23:01:43.554Z,34.47
2023-02-06T23:04:15.627Z,32.77
2023-02-06T23:06:44.410Z,38.00
2023-02-06T23:09:15.681Z,42.93
2023-02-06T23:11:45.853Z,37.70
2023-02-06T23:14:15.671Z,32.97
2023-02-06T23:16:44.257Z,31.00
2023-02-06T23:19:14.201Z,36.23
2023-02-06T23:21:44.418Z,31.00
2023-02-06T23:24:13.382Z,40.10
2023-02-06T23:26:43.108Z,33.33
2023-02-06T23:29:15.849Z,34.00
2023-02-06T23:31:44.903Z,32.20
2023-02-06T23:34:13.499Z,35.60
2023-02-06T23:36:42.101Z,29.13
2023-02-06T23:39:11.809Z,34.77
2023-02-06T23:41:40.119Z,42.30
2023-02-06T23:44:09.526Z,38.23
2023-02-06T23:46:41.452Z,37.17
2023-02-06T23:49:10.366Z,37.30
2023-02-06T23:51:39.373Z,38.13
2023-02-06T23:54:09.034Z,37.03
2023-02-06T23:56:37.802Z,33.20
2023-02-06T23:59:07.160Z,29.63
